sensor_id;sensor_type;location;lat;lon;timestamp;temperature;humidity
44833;DHT22;30569;51.252;9.830;2023-08-20T00:00:13;20.20;99.90
44833;DHT22;30569;51.252;9.830;2023-08-20T00:02:42;20.20;99.90
44833;DHT22;30569;51.252;9.830;2023-08-20T00:05:09;20.20;99.90
44833;DHT22;30569;51.252;9.830;2023-08-20T00:07:35;20.30;99.90
44833;DHT22;30569;51.252;9.830;2023-08-20T00:10:01;20.20;99.90
44833;DHT22;30569;51.252;9.830;2023-08-20T00:12:29;20.20;99.90
44833;DHT22;30569;51.252;9.830;2023-08-20T00:15:02;20.10;99.90
44833;DHT22;30569;51.252;9.830;2023-08-20T00:17:38;20.70;99.90
44833;DHT22;30569;51.252;9.830;2023-08-20T00:20:05;20.00;99.90
44833;DHT22;30569;51.252;9.830;2023-08-20T00:22:36;20.00;99.90
44833;DHT22;30569;51.252;9.830;2023-08-20T00:25:02;20.10;99.90
44833;DHT22;30569;51.252;9.830;2023-08-20T00:27:29;20.00;99.90
44833;DHT22;30569;51.252;9.830;2023-08-20T00:29:55;20.00;99.90
44833;DHT22;30569;51.252;9.830;2023-08-20T00:34:46;19.90;99.90
44833;DHT22;30569;51.252;9.830;2023-08-20T00:37:12;19.80;99.90
44833;DHT22;30569;51.252;9.830;2023-08-20T00:39:38;19.80;99.90
44833;DHT22;30569;51.252;9.830;2023-08-20T00:42:04;19.70;99.90
44833;DHT22;30569;51.252;9.830;2023-08-20T00:44:30;19.80;99.90
44833;DHT22;30569;51.252;9.830;2023-08-20T00:46:56;19.90;99.90
44833;DHT22;30569;51.252;9.830;2023-08-20T00:49:22;19.90;99.90
44833;DHT22;30569;51.252;9.830;2023-08-20T00:51:48;19.80;99.90
44833;DHT22;30569;51.252;9.830;2023-08-20T00:54:14;19.80;99.90
44833;DHT22;30569;51.252;9.830;2023-08-20T00:56:40;19.80;99.90
44833;DHT22;30569;51.252;9.830;2023-08-20T00:59:06;19.80;99.90
44833;DHT22;30569;51.252;9.830;2023-08-20T01:01:32;19.70;99.90
44833;DHT22;30569;51.252;9.830;2023-08-20T01:03:57;19.70;99.90
44833;DHT22;30569;51.252;9.830;2023-08-20T01:11:52;19.70;99.90
44833;DHT22;30569;51.252;9.830;2023-08-20T01:14:20;19.70;99.90
44833;DHT22;30569;51.252;9.830;2023-08-20T01:16:46;19.70;99.90
44833;DHT22;30569;51.252;9.830;2023-08-20T01:19:17;20.30;99.90
44833;DHT22;30569;51.252;9.830;2023-08-20T01:30:27;19.80;99.90
44833;DHT22;30569;51.252;9.830;2023-08-20T01:32:54;19.80;99.90
44833;DHT22;30569;51.252;9.830;2023-08-20T01:35:19;19.80;99.90
44833;DHT22;30569;51.252;9.830;2023-08-20T01:37:45;19.80;99.90
44833;DHT22;30569;51.252;9.830;2023-08-20T01:40:11;19.90;99.90
44833;DHT22;30569;51.252;9.830;2023-08-20T01:42:38;19.90;99.90
44833;DHT22;30569;51.252;9.830;2023-08-20T01:45:05;20.40;99.90
44833;DHT22;30569;51.252;9.830;2023-08-20T01:47:31;19.90;99.90
44833;DHT22;30569;51.252;9.830;2023-08-20T01:49:56;20.00;99.90
44833;DHT22;30569;51.252;9.830;2023-08-20T01:52:22;20.00;99.90
44833;DHT22;30569;51.252;9.830;2023-08-20T01:54:52;20.70;99.90
44833;DHT22;30569;51.252;9.830;2023-08-20T01:57:18;20.10;99.90
44833;DHT22;30569;51.252;9.830;2023-08-20T01:59:44;20.00;99.90
44833;DHT22;30569;51.252;9.830;2023-08-20T02:02:10;20.00;99.90
44833;DHT22;30569;51.252;9.830;2023-08-20T02:04:35;20.00;99.90
44833;DHT22;30569;51.252;9.830;2023-08-20T02:07:01;19.90;99.90
44833;DHT22;30569;51.252;9.830;2023-08-20T02:09:26;19.90;99.90
44833;DHT22;30569;51.252;9.830;2023-08-20T02:11:52;19.90;99.90
44833;DHT22;30569;51.252;9.830;2023-08-20T02:14:17;19.90;99.90
44833;DHT22;30569;51.252;9.830;2023-08-20T02:16:43;19.80;99.90
44833;DHT22;30569;51.252;9.830;2023-08-20T02:19:09;19.80;99.90
44833;DHT22;30569;51.252;9.830;2023-08-20T02:21:36;19.80;99.90
44833;DHT22;30569;51.252;9.830;2023-08-20T02:24:01;19.80;99.90
44833;DHT22;30569;51.252;9.830;2023-08-20T02:26:27;19.70;99.90
44833;DHT22;30569;51.252;9.830;2023-08-20T02:28:52;19.70;99.90
44833;DHT22;30569;51.252;9.830;2023-08-20T02:31:18;19.60;99.90
44833;DHT22;30569;51.252;9.830;2023-08-20T02:33:43;19.70;99.90
44833;DHT22;30569;51.252;9.830;2023-08-20T02:36:09;20.10;99.90
44833;DHT22;30569;51.252;9.830;2023-08-20T02:38:35;19.60;99.90
44833;DHT22;30569;51.252;9.830;2023-08-20T02:41:01;19.70;99.90
44833;DHT22;30569;51.252;9.830;2023-08-20T02:43:28;19.70;99.90
44833;DHT22;30569;51.252;9.830;2023-08-20T02:45:54;19.70;99.90
44833;DHT22;30569;51.252;9.830;2023-08-20T02:48:19;19.70;99.90
44833;DHT22;30569;51.252;9.830;2023-08-20T02:50:45;19.70;99.90
44833;DHT22;30569;51.252;9.830;2023-08-20T02:53:10;19.70;99.90
44833;DHT22;30569;51.252;9.830;2023-08-20T02:58:02;19.80;99.90
44833;DHT22;30569;51.252;9.830;2023-08-20T03:00:34;19.80;99.90
44833;DHT22;30569;51.252;9.830;2023-08-20T03:03:00;19.80;99.90
44833;DHT22;30569;51.252;9.830;2023-08-20T03:05:28;19.80;99.90
44833;DHT22;30569;51.252;9.830;2023-08-20T03:07:53;19.80;99.90
44833;DHT22;30569;51.252;9.830;2023-08-20T03:10:19;19.90;99.90
44833;DHT22;30569;51.252;9.830;2023-08-20T03:12:44;20.00;99.90
44833;DHT22;30569;51.252;9.830;2023-08-20T03:15:10;20.10;99.90
44833;DHT22;30569;51.252;9.830;2023-08-20T03:17:35;20.10;99.90
44833;DHT22;30569;51.252;9.830;2023-08-20T03:20:01;21.80;99.90
44833;DHT22;30569;51.252;9.830;2023-08-20T03:22:29;20.20;99.90
44833;DHT22;30569;51.252;9.830;2023-08-20T03:24:55;20.30;99.90
44833;DHT22;30569;51.252;9.830;2023-08-20T03:27:20;21.10;99.90
44833;DHT22;30569;51.252;9.830;2023-08-20T03:29:46;20.40;99.90
44833;DHT22;30569;51.252;9.830;2023-08-20T03:32:12;20.40;99.90
44833;DHT22;30569;51.252;9.830;2023-08-20T03:34:37;20.50;99.90
44833;DHT22;30569;51.252;9.830;2023-08-20T03:37:03;20.50;99.90
44833;DHT22;30569;51.252;9.830;2023-08-20T03:39:30;20.50;99.90
44833;DHT22;30569;51.252;9.830;2023-08-20T03:41:56;20.60;99.90
44833;DHT22;30569;51.252;9.830;2023-08-20T03:44:22;20.60;99.90
44833;DHT22;30569;51.252;9.830;2023-08-20T03:46:47;20.60;99.90
44833;DHT22;30569;51.252;9.830;2023-08-20T03:49:13;20.60;99.90
44833;DHT22;30569;51.252;9.830;2023-08-20T03:51:38;20.70;99.90
44833;DHT22;30569;51.252;9.830;2023-08-20T03:54:04;20.70;99.90
44833;DHT22;30569;51.252;9.830;2023-08-20T03:56:30;20.80;99.90
44833;DHT22;30569;51.252;9.830;2023-08-20T03:58:55;20.80;99.90
44833;DHT22;30569;51.252;9.830;2023-08-20T04:01:21;20.80;99.90
44833;DHT22;30569;51.252;9.830;2023-08-20T04:03:47;20.90;99.90
44833;DHT22;30569;51.252;9.830;2023-08-20T04:06:13;20.90;99.90
44833;DHT22;30569;51.252;9.830;2023-08-20T04:08:39;20.70;99.90
44833;DHT22;30569;51.252;9.830;2023-08-20T04:11:05;21.00;99.90
44833;DHT22;30569;51.252;9.830;2023-08-20T04:13:31;20.80;99.90
44833;DHT22;30569;51.252;9.830;2023-08-20T04:15:56;21.40;99.90
44833;DHT22;30569;51.252;9.830;2023-08-20T04:18:22;21.10;99.90
44833;DHT22;30569;51.252;9.830;2023-08-20T04:20:50;21.10;99.90
44833;DHT22;30569;51.252;9.830;2023-08-20T04:23:15;21.10;99.90
44833;DHT22;30569;51.252;9.830;2023-08-20T04:25:41;21.20;99.90
44833;DHT22;30569;51.252;9.830;2023-08-20T04:28:06;21.20;99.90
44833;DHT22;30569;51.252;9.830;2023-08-20T04:30:34;21.30;99.90
44833;DHT22;30569;51.252;9.830;2023-08-20T04:32:59;21.30;99.90
44833;DHT22;30569;51.252;9.830;2023-08-20T04:35:25;21.30;99.90
44833;DHT22;30569;51.252;9.830;2023-08-20T04:37:50;22.10;99.90
44833;DHT22;30569;51.252;9.830;2023-08-20T04:40:17;21.40;99.90
44833;DHT22;30569;51.252;9.830;2023-08-20T04:42:43;21.40;99.90
44833;DHT22;30569;51.252;9.830;2023-08-20T04:45:08;21.40;99.90
44833;DHT22;30569;51.252;9.830;2023-08-20T04:47:35;21.50;99.90
44833;DHT22;30569;51.252;9.830;2023-08-20T04:50:00;21.50;99.90
44833;DHT22;30569;51.252;9.830;2023-08-20T04:52:26;21.50;99.90
44833;DHT22;30569;51.252;9.830;2023-08-20T04:54:52;21.60;99.90
44833;DHT22;30569;51.252;9.830;2023-08-20T04:57:17;21.60;99.90
44833;DHT22;30569;51.252;9.830;2023-08-20T04:59:43;21.60;99.90
44833;DHT22;30569;51.252;9.830;2023-08-20T05:02:11;21.60;99.90
44833;DHT22;30569;51.252;9.830;2023-08-20T05:04:37;22.70;99.90
44833;DHT22;30569;51.252;9.830;2023-08-20T05:07:03;22.30;99.90
44833;DHT22;30569;51.252;9.830;2023-08-20T05:09:29;21.80;99.90
44833;DHT22;30569;51.252;9.830;2023-08-20T05:11:54;21.80;99.90
44833;DHT22;30569;51.252;9.830;2023-08-20T05:14:20;21.80;99.90
44833;DHT22;30569;51.252;9.830;2023-08-20T05:16:45;22.70;99.90
44833;DHT22;30569;51.252;9.830;2023-08-20T05:19:11;21.90;99.90
44833;DHT22;30569;51.252;9.830;2023-08-20T05:21:36;21.90;99.90
44833;DHT22;30569;51.252;9.830;2023-08-20T05:24:02;22.10;99.90
44833;DHT22;30569;51.252;9.830;2023-08-20T05:26:28;22.00;99.90
44833;DHT22;30569;51.252;9.830;2023-08-20T05:28:54;21.90;99.90
44833;DHT22;30569;51.252;9.830;2023-08-20T05:31:19;22.00;99.90
44833;DHT22;30569;51.252;9.830;2023-08-20T05:33:45;22.10;99.90
44833;DHT22;30569;51.252;9.830;2023-08-20T05:36:10;22.10;99.90
44833;DHT22;30569;51.252;9.830;2023-08-20T05:38:36;24.10;99.90
44833;DHT22;30569;51.252;9.830;2023-08-20T05:41:01;22.20;99.90
44833;DHT22;30569;51.252;9.830;2023-08-20T05:43:27;22.20;99.90
44833;DHT22;30569;51.252;9.830;2023-08-20T05:45:52;22.20;99.90
44833;DHT22;30569;51.252;9.830;2023-08-20T05:48:18;22.30;99.90
44833;DHT22;30569;51.252;9.830;2023-08-20T05:50:44;22.40;99.90
44833;DHT22;30569;51.252;9.830;2023-08-20T05:53:10;22.40;99.90
44833;DHT22;30569;51.252;9.830;2023-08-20T05:55:36;22.60;99.90
44833;DHT22;30569;51.252;9.830;2023-08-20T05:58:01;23.50;99.90
44833;DHT22;30569;51.252;9.830;2023-08-20T06:00:27;22.60;99.90
44833;DHT22;30569;51.252;9.830;2023-08-20T06:02:53;22.60;99.90
44833;DHT22;30569;51.252;9.830;2023-08-20T06:05:18;22.70;99.90
44833;DHT22;30569;51.252;9.830;2023-08-20T06:07:44;22.80;99.90
44833;DHT22;30569;51.252;9.830;2023-08-20T06:10:09;22.50;99.90
44833;DHT22;30569;51.252;9.830;2023-08-20T06:12:35;22.90;99.90
44833;DHT22;30569;51.252;9.830;2023-08-20T06:15:00;23.30;99.90
44833;DHT22;30569;51.252;9.830;2023-08-20T06:17:26;23.50;99.90
44833;DHT22;30569;51.252;9.830;2023-08-20T06:19:51;23.20;99.90
44833;DHT22;30569;51.252;9.830;2023-08-20T06:22:17;23.30;99.90
44833;DHT22;30569;51.252;9.830;2023-08-20T06:24:43;23.40;99.90
44833;DHT22;30569;51.252;9.830;2023-08-20T06:27:08;23.30;99.90
44833;DHT22;30569;51.252;9.830;2023-08-20T06:29:34;23.80;99.90
44833;DHT22;30569;51.252;9.830;2023-08-20T06:31:59;23.30;99.90
44833;DHT22;30569;51.252;9.830;2023-08-20T06:34:25;23.40;99.90
44833;DHT22;30569;51.252;9.830;2023-08-20T06:36:52;23.70;99.90
44833;DHT22;30569;51.252;9.830;2023-08-20T06:39:17;23.40;99.90
44833;DHT22;30569;51.252;9.830;2023-08-20T06:41:45;23.40;99.90
44833;DHT22;30569;51.252;9.830;2023-08-20T06:44:11;23.50;99.90
44833;DHT22;30569;51.252;9.830;2023-08-20T06:46:36;23.40;99.90
44833;DHT22;30569;51.252;9.830;2023-08-20T06:49:02;23.40;99.90
44833;DHT22;30569;51.252;9.830;2023-08-20T06:51:28;23.60;99.90
44833;DHT22;30569;51.252;9.830;2023-08-20T06:53:54;23.90;99.90
44833;DHT22;30569;51.252;9.830;2023-08-20T06:56:21;25.10;99.90
44833;DHT22;30569;51.252;9.830;2023-08-20T06:58:48;23.80;99.90
44833;DHT22;30569;51.252;9.830;2023-08-20T07:01:13;24.00;99.90
44833;DHT22;30569;51.252;9.830;2023-08-20T07:03:40;24.00;99.90
44833;DHT22;30569;51.252;9.830;2023-08-20T07:06:06;24.30;99.90
44833;DHT22;30569;51.252;9.830;2023-08-20T07:08:32;24.20;99.90
44833;DHT22;30569;51.252;9.830;2023-08-20T07:10:58;24.50;99.90
44833;DHT22;30569;51.252;9.830;2023-08-20T07:13:24;24.60;99.90
44833;DHT22;30569;51.252;9.830;2023-08-20T07:15:50;24.70;99.90
44833;DHT22;30569;51.252;9.830;2023-08-20T07:18:16;24.80;99.90
44833;DHT22;30569;51.252;9.830;2023-08-20T07:20:44;24.70;99.90
44833;DHT22;30569;51.252;9.830;2023-08-20T07:23:11;24.70;99.90
44833;DHT22;30569;51.252;9.830;2023-08-20T07:25:37;24.60;99.90
44833;DHT22;30569;51.252;9.830;2023-08-20T07:28:04;24.70;99.90
44833;DHT22;30569;51.252;9.830;2023-08-20T07:30:30;24.90;99.90
44833;DHT22;30569;51.252;9.830;2023-08-20T07:35:21;24.90;99.90
44833;DHT22;30569;51.252;9.830;2023-08-20T07:37:47;25.00;99.90
44833;DHT22;30569;51.252;9.830;2023-08-20T07:42:42;24.90;99.90
44833;DHT22;30569;51.252;9.830;2023-08-20T07:45:08;25.50;99.90
44833;DHT22;30569;51.252;9.830;2023-08-20T07:47:38;25.00;99.90
44833;DHT22;30569;51.252;9.830;2023-08-20T07:50:05;25.10;99.90
44833;DHT22;30569;51.252;9.830;2023-08-20T07:52:32;25.20;99.90
44833;DHT22;30569;51.252;9.830;2023-08-20T07:54:57;25.30;99.90
44833;DHT22;30569;51.252;9.830;2023-08-20T07:57:23;25.40;99.90
44833;DHT22;30569;51.252;9.830;2023-08-20T07:59:49;25.60;99.90
44833;DHT22;30569;51.252;9.830;2023-08-20T08:02:15;25.40;99.90
44833;DHT22;30569;51.252;9.830;2023-08-20T08:04:42;25.60;99.90
44833;DHT22;30569;51.252;9.830;2023-08-20T08:07:07;25.50;99.90
44833;DHT22;30569;51.252;9.830;2023-08-20T08:09:33;25.70;99.90
44833;DHT22;30569;51.252;9.830;2023-08-20T08:11:59;25.80;99.90
44833;DHT22;30569;51.252;9.830;2023-08-20T08:14:25;26.00;99.90
44833;DHT22;30569;51.252;9.830;2023-08-20T08:19:18;26.40;99.90
44833;DHT22;30569;51.252;9.830;2023-08-20T08:21:44;26.30;99.90
44833;DHT22;30569;51.252;9.830;2023-08-20T08:24:11;26.60;99.90
44833;DHT22;30569;51.252;9.830;2023-08-20T08:29:03;26.70;99.50
44833;DHT22;30569;51.252;9.830;2023-08-20T08:31:29;26.90;99.50
44833;DHT22;30569;51.252;9.830;2023-08-20T08:36:20;27.20;99.30
44833;DHT22;30569;51.252;9.830;2023-08-20T08:41:13;27.60;97.90
44833;DHT22;30569;51.252;9.830;2023-08-20T08:46:12;28.20;97.90
44833;DHT22;30569;51.252;9.830;2023-08-20T08:48:43;28.10;98.10
44833;DHT22;30569;51.252;9.830;2023-08-20T08:51:09;28.50;96.70
44833;DHT22;30569;51.252;9.830;2023-08-20T08:53:35;29.00;96.40
44833;DHT22;30569;51.252;9.830;2023-08-20T08:56:01;29.10;96.70
44833;DHT22;30569;51.252;9.830;2023-08-20T08:58:28;29.20;95.90
44833;DHT22;30569;51.252;9.830;2023-08-20T09:03:20;29.60;95.10
44833;DHT22;30569;51.252;9.830;2023-08-20T09:05:50;29.70;95.00
44833;DHT22;30569;51.252;9.830;2023-08-20T09:08:26;29.80;94.90
44833;DHT22;30569;51.252;9.830;2023-08-20T09:10:53;30.70;93.00
44833;DHT22;30569;51.252;9.830;2023-08-20T09:13:32;30.80;93.60
44833;DHT22;30569;51.252;9.830;2023-08-20T09:18:25;32.10;91.90
44833;DHT22;30569;51.252;9.830;2023-08-20T09:20:51;33.00;89.60
44833;DHT22;30569;51.252;9.830;2023-08-20T09:23:17;33.00;89.90
44833;DHT22;30569;51.252;9.830;2023-08-20T09:25:43;32.90;90.00
44833;DHT22;30569;51.252;9.830;2023-08-20T09:30:37;35.30;85.10
44833;DHT22;30569;51.252;9.830;2023-08-20T09:33:09;35.40;85.30
44833;DHT22;30569;51.252;9.830;2023-08-20T09:35:35;37.70;80.60
44833;DHT22;30569;51.252;9.830;2023-08-20T09:38:02;38.20;76.40
44833;DHT22;30569;51.252;9.830;2023-08-20T09:40:29;39.30;72.90
44833;DHT22;30569;51.252;9.830;2023-08-20T09:42:56;39.20;73.30
44833;DHT22;30569;51.252;9.830;2023-08-20T09:45:28;40.40;70.70
44833;DHT22;30569;51.252;9.830;2023-08-20T09:47:55;39.90;69.50
44833;DHT22;30569;51.252;9.830;2023-08-20T09:50:23;38.30;72.00
44833;DHT22;30569;51.252;9.830;2023-08-20T09:52:57;37.10;74.10
44833;DHT22;30569;51.252;9.830;2023-08-20T09:55:32;36.30;75.80
44833;DHT22;30569;51.252;9.830;2023-08-20T09:58:02;35.30;78.50
44833;DHT22;30569;51.252;9.830;2023-08-20T10:00:31;34.10;79.30
44833;DHT22;30569;51.252;9.830;2023-08-20T10:02:57;33.60;82.50
44833;DHT22;30569;51.252;9.830;2023-08-20T10:05:23;33.50;83.00
44833;DHT22;30569;51.252;9.830;2023-08-20T10:07:50;33.30;83.30
44833;DHT22;30569;51.252;9.830;2023-08-20T10:10:16;33.20;83.90
44833;DHT22;30569;51.252;9.830;2023-08-20T10:12:43;33.30;84.10
44833;DHT22;30569;51.252;9.830;2023-08-20T10:15:11;33.10;82.90
44833;DHT22;30569;51.252;9.830;2023-08-20T10:17:39;32.60;81.70
44833;DHT22;30569;51.252;9.830;2023-08-20T10:20:05;32.70;84.60
44833;DHT22;30569;51.252;9.830;2023-08-20T10:22:39;32.80;84.60
44833;DHT22;30569;51.252;9.830;2023-08-20T10:25:09;32.70;86.10
44833;DHT22;30569;51.252;9.830;2023-08-20T10:27:37;32.70;85.00
44833;DHT22;30569;51.252;9.830;2023-08-20T10:30:11;32.60;86.20
44833;DHT22;30569;51.252;9.830;2023-08-20T10:32:45;32.40;85.90
44833;DHT22;30569;51.252;9.830;2023-08-20T10:35:18;32.20;85.60
44833;DHT22;30569;51.252;9.830;2023-08-20T10:38:12;31.90;86.60
44833;DHT22;30569;51.252;9.830;2023-08-20T10:40:58;31.50;85.60
44833;DHT22;30569;51.252;9.830;2023-08-20T10:43:30;31.30;87.50
44833;DHT22;30569;51.252;9.830;2023-08-20T10:48:39;31.00;88.00
44833;DHT22;30569;51.252;9.830;2023-08-20T10:51:13;31.00;90.20
44833;DHT22;30569;51.252;9.830;2023-08-20T10:53:40;31.10;90.70
44833;DHT22;30569;51.252;9.830;2023-08-20T10:56:15;30.90;90.00
44833;DHT22;30569;51.252;9.830;2023-08-20T10:58:42;31.00;91.10
44833;DHT22;30569;51.252;9.830;2023-08-20T11:01:21;30.80;91.00
44833;DHT22;30569;51.252;9.830;2023-08-20T11:03:49;30.70;91.00
44833;DHT22;30569;51.252;9.830;2023-08-20T11:11:08;30.40;91.40
44833;DHT22;30569;51.252;9.830;2023-08-20T11:16:02;30.40;91.50
44833;DHT22;30569;51.252;9.830;2023-08-20T11:18:28;30.30;92.30
44833;DHT22;30569;51.252;9.830;2023-08-20T11:25:50;30.60;91.70
44833;DHT22;30569;51.252;9.830;2023-08-20T11:33:07;30.10;92.80
44833;DHT22;30569;51.252;9.830;2023-08-20T11:35:35;30.30;91.60
44833;DHT22;30569;51.252;9.830;2023-08-20T11:40:26;30.40;92.00
44833;DHT22;30569;51.252;9.830;2023-08-20T11:42:52;30.40;91.80
44833;DHT22;30569;51.252;9.830;2023-08-20T11:45:18;30.70;92.70
44833;DHT22;30569;51.252;9.830;2023-08-20T11:47:43;30.60;92.10
44833;DHT22;30569;51.252;9.830;2023-08-20T11:50:09;30.70;91.70
44833;DHT22;30569;51.252;9.830;2023-08-20T11:52:36;30.70;91.20
44833;DHT22;30569;51.252;9.830;2023-08-20T11:55:02;30.80;91.20
44833;DHT22;30569;51.252;9.830;2023-08-20T11:57:29;30.80;92.10
44833;DHT22;30569;51.252;9.830;2023-08-20T12:02:26;30.50;90.90
44833;DHT22;30569;51.252;9.830;2023-08-20T12:07:18;30.50;92.50
44833;DHT22;30569;51.252;9.830;2023-08-20T12:09:43;30.50;92.60
44833;DHT22;30569;51.252;9.830;2023-08-20T12:14:36;30.60;92.90
44833;DHT22;30569;51.252;9.830;2023-08-20T12:26:47;30.70;92.30
44833;DHT22;30569;51.252;9.830;2023-08-20T12:31:39;30.60;91.10
44833;DHT22;30569;51.252;9.830;2023-08-20T12:34:05;30.50;90.90
44833;DHT22;30569;51.252;9.830;2023-08-20T12:38:57;30.70;90.50
44833;DHT22;30569;51.252;9.830;2023-08-20T12:43:49;30.70;91.70
44833;DHT22;30569;51.252;9.830;2023-08-20T12:46:15;30.30;91.60
44833;DHT22;30569;51.252;9.830;2023-08-20T12:48:40;30.30;91.60
44833;DHT22;30569;51.252;9.830;2023-08-20T12:58:24;30.60;91.60
44833;DHT22;30569;51.252;9.830;2023-08-20T13:00:50;30.60;91.60
44833;DHT22;30569;51.252;9.830;2023-08-20T13:03:17;30.50;91.80
44833;DHT22;30569;51.252;9.830;2023-08-20T13:05:43;30.50;93.40
44833;DHT22;30569;51.252;9.830;2023-08-20T13:08:09;30.50;93.40
44833;DHT22;30569;51.252;9.830;2023-08-20T13:10:40;30.40;92.50
44833;DHT22;30569;51.252;9.830;2023-08-20T13:13:09;30.40;93.00
44833;DHT22;30569;51.252;9.830;2023-08-20T13:15:36;30.40;93.40
44833;DHT22;30569;51.252;9.830;2023-08-20T13:18:02;30.20;93.20
44833;DHT22;30569;51.252;9.830;2023-08-20T13:22:54;30.00;93.60
44833;DHT22;30569;51.252;9.830;2023-08-20T13:25:19;29.90;93.70
44833;DHT22;30569;51.252;9.830;2023-08-20T13:30:13;30.00;93.30
44833;DHT22;30569;51.252;9.830;2023-08-20T13:32:39;29.90;93.60
44833;DHT22;30569;51.252;9.830;2023-08-20T13:35:05;29.70;93.90
44833;DHT22;30569;51.252;9.830;2023-08-20T13:37:31;29.80;94.30
44833;DHT22;30569;51.252;9.830;2023-08-20T13:39:58;29.80;94.60
44833;DHT22;30569;51.252;9.830;2023-08-20T13:44:49;29.90;94.70
44833;DHT22;30569;51.252;9.830;2023-08-20T13:47:15;29.90;94.40
44833;DHT22;30569;51.252;9.830;2023-08-20T13:54:34;30.00;94.50
44833;DHT22;30569;51.252;9.830;2023-08-20T13:57:00;30.00;94.90
44833;DHT22;30569;51.252;9.830;2023-08-20T14:06:43;29.70;94.60
44833;DHT22;30569;51.252;9.830;2023-08-20T14:09:09;29.80;94.80
44833;DHT22;30569;51.252;9.830;2023-08-20T14:11:34;29.50;94.80
44833;DHT22;30569;51.252;9.830;2023-08-20T14:21:20;29.40;94.40
44833;DHT22;30569;51.252;9.830;2023-08-20T14:23:45;29.40;94.40
44833;DHT22;30569;51.252;9.830;2023-08-20T14:26:11;29.30;95.20
44833;DHT22;30569;51.252;9.830;2023-08-20T14:31:03;29.10;95.50
44833;DHT22;30569;51.252;9.830;2023-08-20T14:33:30;29.10;95.90
44833;DHT22;30569;51.252;9.830;2023-08-20T14:38:22;29.30;94.30
44833;DHT22;30569;51.252;9.830;2023-08-20T14:43:13;29.50;94.30
44833;DHT22;30569;51.252;9.830;2023-08-20T14:48:05;29.40;94.50
44833;DHT22;30569;51.252;9.830;2023-08-20T14:52:57;29.40;92.60
44833;DHT22;30569;51.252;9.830;2023-08-20T14:55:24;29.50;93.70
44833;DHT22;30569;51.252;9.830;2023-08-20T14:57:50;29.50;93.10
44833;DHT22;30569;51.252;9.830;2023-08-20T15:00:16;29.40;93.60
44833;DHT22;30569;51.252;9.830;2023-08-20T15:02:46;29.10;93.80
44833;DHT22;30569;51.252;9.830;2023-08-20T15:05:13;29.10;94.10
44833;DHT22;30569;51.252;9.830;2023-08-20T15:07:39;29.00;94.60
44833;DHT22;30569;51.252;9.830;2023-08-20T15:10:05;28.90;94.90
44833;DHT22;30569;51.252;9.830;2023-08-20T15:12:35;29.00;95.20
44833;DHT22;30569;51.252;9.830;2023-08-20T15:15:02;29.20;95.20
44833;DHT22;30569;51.252;9.830;2023-08-20T15:27:13;29.40;94.10
44833;DHT22;30569;51.252;9.830;2023-08-20T15:32:05;29.40;93.90
44833;DHT22;30569;51.252;9.830;2023-08-20T15:34:30;29.50;93.30
44833;DHT22;30569;51.252;9.830;2023-08-20T15:36:56;29.40;93.70
44833;DHT22;30569;51.252;9.830;2023-08-20T15:39:21;29.50;94.50
44833;DHT22;30569;51.252;9.830;2023-08-20T15:41:47;29.50;94.70
44833;DHT22;30569;51.252;9.830;2023-08-20T15:51:31;29.40;93.20
44833;DHT22;30569;51.252;9.830;2023-08-20T15:53:58;29.40;93.00
44833;DHT22;30569;51.252;9.830;2023-08-20T15:56:24;29.40;93.20
44833;DHT22;30569;51.252;9.830;2023-08-20T16:01:16;29.50;93.40
44833;DHT22;30569;51.252;9.830;2023-08-20T16:03:41;29.40;93.60
44833;DHT22;30569;51.252;9.830;2023-08-20T16:11:02;29.50;93.60
44833;DHT22;30569;51.252;9.830;2023-08-20T16:13:29;29.40;93.30
44833;DHT22;30569;51.252;9.830;2023-08-20T16:23:12;29.40;93.00
44833;DHT22;30569;51.252;9.830;2023-08-20T16:25:38;29.30;91.40
44833;DHT22;30569;51.252;9.830;2023-08-20T16:28:07;29.40;92.10
44833;DHT22;30569;51.252;9.830;2023-08-20T16:32:59;29.10;91.90
44833;DHT22;30569;51.252;9.830;2023-08-20T16:35:24;29.20;92.30
44833;DHT22;30569;51.252;9.830;2023-08-20T16:40:22;29.40;92.90
44833;DHT22;30569;51.252;9.830;2023-08-20T16:42:49;29.30;92.70
44833;DHT22;30569;51.252;9.830;2023-08-20T16:50:06;29.10;92.40
44833;DHT22;30569;51.252;9.830;2023-08-20T16:52:32;29.00;93.00
44833;DHT22;30569;51.252;9.830;2023-08-20T16:59:49;28.70;93.90
44833;DHT22;30569;51.252;9.830;2023-08-20T17:02:15;28.70;94.20
44833;DHT22;30569;51.252;9.830;2023-08-20T17:09:32;28.50;94.90
44833;DHT22;30569;51.252;9.830;2023-08-20T17:11:58;28.40;94.50
44833;DHT22;30569;51.252;9.830;2023-08-20T17:14:24;28.40;94.60
44833;DHT22;30569;51.252;9.830;2023-08-20T17:16:49;28.40;94.70
44833;DHT22;30569;51.252;9.830;2023-08-20T17:36:22;27.90;95.50
44833;DHT22;30569;51.252;9.830;2023-08-20T17:43:39;27.70;96.00
44833;DHT22;30569;51.252;9.830;2023-08-20T17:48:31;27.40;96.40
44833;DHT22;30569;51.252;9.830;2023-08-20T17:58:20;26.90;97.60
44833;DHT22;30569;51.252;9.830;2023-08-20T18:08:33;26.70;98.30
44833;DHT22;30569;51.252;9.830;2023-08-20T18:15:56;26.60;98.60
44833;DHT22;30569;51.252;9.830;2023-08-20T18:18:22;26.40;99.30
44833;DHT22;30569;51.252;9.830;2023-08-20T18:30:35;25.80;99.70
44833;DHT22;30569;51.252;9.830;2023-08-20T18:33:02;25.70;99.70
44833;DHT22;30569;51.252;9.830;2023-08-20T18:40:22;25.30;99.60
44833;DHT22;30569;51.252;9.830;2023-08-20T18:45:14;25.10;99.50
44833;DHT22;30569;51.252;9.830;2023-08-20T18:50:08;24.80;99.90
44833;DHT22;30569;51.252;9.830;2023-08-20T18:52:34;24.60;99.90
44833;DHT22;30569;51.252;9.830;2023-08-20T18:57:26;24.40;99.90
44833;DHT22;30569;51.252;9.830;2023-08-20T18:59:52;24.30;99.90
44833;DHT22;30569;51.252;9.830;2023-08-20T19:12:03;23.90;99.90
44833;DHT22;30569;51.252;9.830;2023-08-20T19:14:29;23.80;99.90
44833;DHT22;30569;51.252;9.830;2023-08-20T19:16:55;23.70;99.90
44833;DHT22;30569;51.252;9.830;2023-08-20T19:19:21;23.60;99.90
44833;DHT22;30569;51.252;9.830;2023-08-20T19:24:12;23.40;99.90
44833;DHT22;30569;51.252;9.830;2023-08-20T19:29:03;23.10;99.90
44833;DHT22;30569;51.252;9.830;2023-08-20T19:46:06;22.60;99.90
44833;DHT22;30569;51.252;9.830;2023-08-20T19:48:35;22.50;99.90
44833;DHT22;30569;51.252;9.830;2023-08-20T19:51:01;22.50;99.90
44833;DHT22;30569;51.252;9.830;2023-08-20T19:53:27;22.40;99.90
44833;DHT22;30569;51.252;9.830;2023-08-20T19:55:58;24.10;99.90
44833;DHT22;30569;51.252;9.830;2023-08-20T19:58:25;23.50;99.90
44833;DHT22;30569;51.252;9.830;2023-08-20T20:00:51;22.30;99.90
44833;DHT22;30569;51.252;9.830;2023-08-20T20:10:38;22.10;99.90
44833;DHT22;30569;51.252;9.830;2023-08-20T20:13:04;22.10;99.90
44833;DHT22;30569;51.252;9.830;2023-08-20T20:18:01;22.10;99.90
44833;DHT22;30569;51.252;9.830;2023-08-20T20:20:26;22.00;99.90